Time;durP1;ratioP1;P1;durP2;ratioP2;P2;SDS_P1;SDS_P2;PMS_P1;PMS_P2;Temp;Humidity;BMP_temperature;BMP_pressure;BME280_temperature;BME280_humidity;BME280_pressure;Samples;Min_cycle;Max_cycle;Signal;HPM_P1;HPM_P2
2020/12/02 00:01:01;;;;;;;91.00;32.97;;;5.50;99.90;;;;;;5110337;28;20024;-66
2020/12/02 00:03:38;;;;;;;97.50;33.70;;;5.50;99.90;;;;;;5111759;28;20081;-66
2020/12/02 00:06:05;;;;;;;113.35;36.40;;;5.40;99.90;;;;;;5109875;28;20080;-66
2020/12/02 00:08:43;;;;;;;112.13;35.50;;;5.40;99.90;;;;;;5111284;28;20376;-66
2020/12/02 00:11:11;;;;;;;110.60;35.33;;;5.40;99.90;;;;;;5111611;28;20476;-66
2020/12/02 00:13:40;;;;;;;96.88;32.92;;;5.40;99.90;;;;;;5110571;28;20028;-66
2020/12/02 00:16:08;;;;;;;97.55;34.20;;;5.40;99.90;;;;;;5111202;28;20024;-66
2020/12/02 00:18:36;;;;;;;103.63;34.78;;;5.40;99.90;;;;;;5110010;28;20023;-66
2020/12/02 00:21:03;;;;;;;89.93;33.80;;;5.40;99.90;;;;;;5111453;28;20023;-66
2020/12/02 00:23:29;;;;;;;92.82;34.58;;;5.40;99.90;;;;;;5111114;28;20043;-66
2020/12/02 00:25:55;;;;;;;98.53;34.03;;;5.40;99.90;;;;;;5109848;28;20024;-66
2020/12/02 00:28:20;;;;;;;103.40;35.83;;;5.40;99.90;;;;;;5109729;28;20051;-66
2020/12/02 00:30:46;;;;;;;92.82;33.97;;;5.40;99.90;;;;;;5110928;28;20065;-67
2020/12/02 00:33:16;;;;;;;93.75;35.25;;;5.40;99.90;;;;;;5110889;28;20020;-66
2020/12/02 00:35:42;;;;;;;88.80;33.58;;;5.40;99.90;;;;;;5109680;28;20115;-66
2020/12/02 00:38:11;;;;;;;95.72;34.70;;;5.30;99.90;;;;;;5111085;28;20054;-66
2020/12/02 00:40:37;;;;;;;95.68;33.72;;;5.30;99.90;;;;;;5110751;28;20031;-66
2020/12/02 00:43:03;;;;;;;81.32;32.42;;;5.30;99.90;;;;;;5110449;28;20024;-66
2020/12/02 00:45:29;;;;;;;91.18;33.50;;;5.30;99.90;;;;;;5109771;28;20377;-66
2020/12/02 00:47:55;;;;;;;70.47;28.85;;;5.20;99.90;;;;;;5109065;28;20051;-66
2020/12/02 00:50:22;;;;;;;77.80;30.75;;;5.20;99.90;;;;;;5110854;28;20027;-66
2020/12/02 00:53:07;;;;;;;61.58;25.75;;;5.20;99.90;;;;;;5092048;28;20024;-66
2020/12/02 00:55:33;;;;;;;65.97;26.70;;;5.20;99.90;;;;;;5110464;28;20489;-66
2020/12/02 00:58:02;;;;;;;58.47;25.63;;;5.20;99.90;;;;;;5090120;28;20031;-66
2020/12/02 01:00:31;;;;;;;49.47;24.85;;;5.20;99.90;;;;;;5095126;28;20024;-66
2020/12/02 01:03:21;;;;;;;56.25;25.95;;;5.10;99.90;;;;;;5097041;28;20024;-66
2020/12/02 01:05:47;;;;;;;52.33;23.35;;;5.10;99.90;;;;;;5095136;28;20493;-66
2020/12/02 01:08:36;;;;;;;48.28;23.50;;;5.10;99.90;;;;;;5095392;28;20082;-66
2020/12/02 01:11:12;;;;;;;47.40;23.00;;;5.10;99.90;;;;;;5096342;28;20020;-66
2020/12/02 01:13:39;;;;;;;53.35;23.90;;;5.10;99.90;;;;;;5079692;28;20043;-66
2020/12/02 01:16:07;;;;;;;54.50;24.60;;;5.00;99.90;;;;;;5096762;28;20480;-66
2020/12/02 01:18:33;;;;;;;53.42;24.45;;;5.00;99.90;;;;;;5095758;28;20032;-66
2020/12/02 01:21:15;;;;;;;59.92;24.27;;;5.00;99.90;;;;;;5096662;28;20073;-66
2020/12/02 01:23:47;;;;;;;54.75;24.92;;;5.00;99.90;;;;;;5096402;28;20137;-66
2020/12/02 01:26:13;;;;;;;52.22;25.58;;;5.00;99.90;;;;;;5096301;28;20039;-66
2020/12/02 01:28:39;;;;;;;56.72;25.15;;;5.00;99.90;;;;;;5094761;28;20036;-66
2020/12/02 01:31:05;;;;;;;61.58;25.85;;;4.90;99.90;;;;;;5094675;28;20078;-66
2020/12/02 01:33:31;;;;;;;50.38;23.45;;;4.90;99.90;;;;;;5094592;28;20020;-66
2020/12/02 01:35:57;;;;;;;49.75;24.33;;;4.90;99.90;;;;;;5094961;28;20091;-66
2020/12/02 01:38:29;;;;;;;55.58;25.05;;;4.90;99.90;;;;;;5096349;28;20040;-66
2020/12/02 01:40:56;;;;;;;49.03;23.05;;;4.90;99.90;;;;;;5095326;28;20122;-66
2020/12/02 01:43:22;;;;;;;45.17;23.27;;;4.90;99.90;;;;;;5096271;28;20024;-66
2020/12/02 01:45:50;;;;;;;53.00;25.15;;;4.90;99.90;;;;;;5095943;28;20038;-66
2020/12/02 01:51:06;;;;;;;44.13;23.35;;;4.90;99.90;;;;;;5091898;28;20406;-68
2020/12/02 01:56:44;;;;;;;47.60;21.73;;;4.90;99.90;;;;;;5112291;27;20343;-66
2020/12/02 01:59:35;;;;;;;49.33;23.45;;;4.80;99.90;;;;;;5111980;28;20027;-66
2020/12/02 02:02:40;;;;;;;46.10;21.40;;;4.90;99.90;;;;;;5111840;28;20016;-66
2020/12/02 02:05:16;;;;;;;43.00;22.45;;;4.90;99.90;;;;;;5111226;28;20055;-66
2020/12/02 02:07:42;;;;;;;50.17;23.17;;;4.80;99.90;;;;;;5111836;28;20024;-66
2020/12/02 02:10:20;;;;;;;43.75;22.10;;;4.80;99.90;;;;;;5111496;28;20163;-66
2020/12/02 02:13:28;;;;;;;44.05;21.63;;;4.90;99.90;;;;;;5110288;28;20032;-67
2020/12/02 02:16:01;;;;;;;45.78;21.95;;;4.80;99.90;;;;;;5110996;28;20028;-66
2020/12/02 02:18:29;;;;;;;41.83;21.65;;;4.90;99.90;;;;;;5111329;28;20031;-66
2020/12/02 02:21:13;;;;;;;45.60;21.45;;;4.90;99.90;;;;;;5109761;28;20389;-66
2020/12/02 02:23:40;;;;;;;49.40;22.60;;;4.80;99.90;;;;;;5111834;28;20415;-66
2020/12/02 02:26:29;;;;;;;43.05;21.45;;;4.80;99.90;;;;;;5111511;28;20103;-66
2020/12/02 02:29:19;;;;;;;45.58;21.73;;;4.80;99.90;;;;;;5110832;28;20060;-66
2020/12/02 02:31:50;;;;;;;39.60;19.77;;;4.80;99.90;;;;;;5110744;28;20386;-66
2020/12/02 02:34:16;;;;;;;48.42;23.05;;;4.70;99.90;;;;;;5109778;28;20024;-66
2020/12/02 02:36:42;;;;;;;45.75;22.40;;;4.70;99.90;;;;;;5109814;28;20372;-67
2020/12/02 02:39:10;;;;;;;41.50;20.83;;;4.80;99.90;;;;;;5110923;28;20094;-66
2020/12/02 02:41:35;;;;;;;47.00;21.90;;;4.80;99.90;;;;;;5092948;28;20024;-66
2020/12/02 02:44:01;;;;;;;47.72;22.15;;;4.70;99.90;;;;;;5110820;28;20035;-66
2020/12/02 02:46:27;;;;;;;48.67;23.27;;;4.70;99.90;;;;;;5111044;28;20028;-66
2020/12/02 02:48:53;;;;;;;50.40;24.00;;;4.60;99.90;;;;;;5110734;28;20103;-66
2020/12/02 02:51:18;;;;;;;50.78;24.42;;;4.60;99.90;;;;;;5110977;28;20027;-66
2020/12/02 02:53:44;;;;;;;51.33;23.92;;;4.60;99.90;;;;;;5109782;28;20023;-66
2020/12/02 02:56:12;;;;;;;49.65;24.42;;;4.60;99.90;;;;;;5108793;28;20036;-66
2020/12/02 02:58:38;;;;;;;52.33;24.38;;;4.60;99.90;;;;;;5109281;28;20376;-66
2020/12/02 03:01:04;;;;;;;51.88;24.75;;;4.60;99.90;;;;;;5109806;28;20106;-66
2020/12/02 03:03:31;;;;;;;58.13;25.20;;;4.60;99.90;;;;;;5110711;28;20047;-66
2020/12/02 03:05:58;;;;;;;48.55;23.23;;;4.60;99.90;;;;;;5108261;28;20103;-67
2020/12/02 03:08:24;;;;;;;55.40;25.27;;;4.60;99.90;;;;;;5096983;28;20034;-66
2020/12/02 03:10:49;;;;;;;51.20;25.48;;;4.60;99.90;;;;;;5078857;28;20393;-66
2020/12/02 03:16:22;;;;;;;54.45;25.52;;;4.50;99.90;;;;;;5132828;27;20350;-67
2020/12/02 03:18:49;;;;;;;53.67;25.55;;;4.50;99.90;;;;;;5113675;28;20560;-67
2020/12/02 03:21:20;;;;;;;49.95;24.40;;;4.50;99.90;;;;;;5113806;28;20034;-67
2020/12/02 03:23:46;;;;;;;53.35;26.38;;;4.50;99.90;;;;;;5114376;28;20068;-67
2020/12/02 03:26:12;;;;;;;48.60;25.70;;;4.50;99.90;;;;;;5131758;28;20031;-67
2020/12/02 03:28:38;;;;;;;46.65;24.05;;;4.50;99.90;;;;;;5132256;28;20037;-67
2020/12/02 03:31:09;;;;;;;50.55;26.02;;;4.50;99.90;;;;;;5114073;28;20098;-67
2020/12/02 03:33:34;;;;;;;56.20;27.10;;;4.50;99.90;;;;;;5096679;28;20026;-67
2020/12/02 03:36:00;;;;;;;52.47;27.08;;;4.50;99.90;;;;;;5113637;28;20098;-67
2020/12/02 03:38:25;;;;;;;52.20;26.23;;;4.40;99.90;;;;;;5113189;28;20490;-67
2020/12/02 03:40:51;;;;;;;50.45;25.70;;;4.40;99.90;;;;;;5131811;28;20024;-67
2020/12/02 03:43:17;;;;;;;53.83;26.27;;;4.40;99.90;;;;;;5113099;28;20030;-67
2020/12/02 03:45:45;;;;;;;51.17;26.08;;;4.40;99.90;;;;;;5113301;28;20027;-67
2020/12/02 03:48:13;;;;;;;51.50;26.15;;;4.40;99.90;;;;;;5131936;28;20023;-67
2020/12/02 03:50:40;;;;;;;50.05;25.52;;;4.40;99.90;;;;;;5131859;28;20019;-67
2020/12/02 03:53:07;;;;;;;52.92;25.55;;;4.30;99.90;;;;;;5113221;28;20031;-67
2020/12/02 03:55:34;;;;;;;52.92;26.17;;;4.40;99.90;;;;;;5131701;28;20027;-67
2020/12/02 03:58:00;;;;;;;53.28;26.58;;;4.40;99.90;;;;;;5112813;28;20488;-67
2020/12/02 04:00:26;;;;;;;51.47;25.92;;;4.30;99.90;;;;;;5095931;28;20023;-67
2020/12/02 04:02:53;;;;;;;51.38;27.08;;;4.30;99.90;;;;;;5112978;28;20494;-67
2020/12/02 04:05:19;;;;;;;51.70;25.63;;;4.40;99.90;;;;;;5112896;28;20023;-65
2020/12/02 04:07:44;;;;;;;53.05;25.00;;;4.40;99.90;;;;;;5131248;28;20023;-67
2020/12/02 04:10:10;;;;;;;48.72;24.85;;;4.30;99.90;;;;;;5131517;28;20031;-68
2020/12/02 04:12:36;;;;;;;51.15;25.60;;;4.30;99.90;;;;;;5095639;28;20034;-67
2020/12/02 04:15:03;;;;;;;50.97;25.40;;;4.30;99.90;;;;;;5095302;28;20043;-67
2020/12/02 04:17:29;;;;;;;48.28;25.13;;;4.30;99.90;;;;;;5131331;28;20027;-67
2020/12/02 04:19:54;;;;;;;55.53;25.27;;;4.30;99.90;;;;;;5112498;28;20023;-67
2020/12/02 04:22:20;;;;;;;58.08;25.77;;;4.30;99.90;;;;;;5112432;28;20023;-67
2020/12/02 04:24:45;;;;;;;55.70;26.27;;;4.20;99.90;;;;;;5112637;28;20031;-67
2020/12/02 04:27:11;;;;;;;53.05;25.08;;;4.30;99.90;;;;;;5118025;28;20020;-67
2020/12/02 04:29:36;;;;;;;53.95;25.05;;;4.20;99.90;;;;;;5098967;28;20490;-67
2020/12/02 04:32:05;;;;;;;51.42;24.13;;;4.20;99.90;;;;;;5098640;28;20031;-67
2020/12/02 04:34:31;;;;;;;50.70;24.35;;;4.30;99.90;;;;;;5117270;28;20019;-67
2020/12/02 04:36:56;;;;;;;53.45;25.25;;;4.30;99.90;;;;;;5098815;28;20046;-67
2020/12/02 04:39:22;;;;;;;56.63;24.60;;;4.20;99.90;;;;;;5081863;28;20464;-67
2020/12/02 04:41:47;;;;;;;52.40;25.10;;;4.20;99.90;;;;;;5117173;28;20024;-67
2020/12/02 04:44:13;;;;;;;53.50;25.08;;;4.20;99.90;;;;;;5098372;28;20604;-68
2020/12/02 04:46:40;;;;;;;54.08;25.75;;;4.30;99.90;;;;;;5098290;28;20560;-66
2020/12/02 04:49:26;;;;;;;55.28;24.88;;;4.30;99.90;;;;;;5116703;28;20038;-68
2020/12/02 04:51:57;;;;;;;56.13;25.40;;;4.30;99.90;;;;;;5116970;28;20055;-68
2020/12/02 04:54:23;;;;;;;53.72;25.80;;;4.30;99.90;;;;;;5082392;28;20027;-66
2020/12/02 04:56:49;;;;;;;55.92;25.30;;;4.20;99.90;;;;;;5116633;28;20020;-67
2020/12/02 04:59:16;;;;;;;51.25;25.23;;;4.20;99.90;;;;;;5081789;28;20057;-67
2020/12/02 05:01:52;;;;;;;54.38;25.27;;;4.30;99.90;;;;;;5116277;28;20024;-67
2020/12/02 05:04:22;;;;;;;53.35;25.25;;;4.30;99.90;;;;;;5098221;28;20027;-67
2020/12/02 05:07:06;;;;;;;61.15;24.98;;;4.30;99.90;;;;;;5116656;28;20019;-67
2020/12/02 05:09:50;;;;;;;52.25;24.10;;;4.30;99.90;;;;;;5083172;28;20034;-68
2020/12/02 05:12:24;;;;;;;49.22;23.17;;;4.30;99.90;;;;;;5116039;28;20027;-68
2020/12/02 05:14:50;;;;;;;51.08;24.65;;;4.30;99.90;;;;;;5067217;28;20072;-67
2020/12/02 05:20:16;;;;;;;58.75;25.50;;;4.30;99.90;;;;;;5112275;27;20351;-67
2020/12/02 05:22:45;;;;;;;54.70;24.70;;;4.20;99.90;;;;;;5093426;28;20024;-67
2020/12/02 05:25:32;;;;;;;51.25;25.52;;;4.20;99.90;;;;;;5110763;28;20082;-68
2020/12/02 05:28:20;;;;;;;54.95;26.40;;;4.20;99.90;;;;;;5110097;28;20507;-68
2020/12/02 05:30:47;;;;;;;60.92;27.70;;;4.20;99.90;;;;;;5111835;28;20020;-68
2020/12/02 05:33:19;;;;;;;59.00;26.10;;;4.20;99.90;;;;;;5110327;28;20023;-67
2020/12/02 05:35:58;;;;;;;54.25;24.63;;;4.30;99.90;;;;;;5109920;28;20058;-68
2020/12/02 05:38:30;;;;;;;53.33;25.27;;;4.30;99.90;;;;;;5092836;28;20057;-67
2020/12/02 05:40:58;;;;;;;50.67;23.88;;;4.30;99.90;;;;;;5111639;28;20023;-68
2020/12/02 05:43:47;;;;;;;52.17;24.42;;;4.30;99.90;;;;;;5111582;28;20081;-68
2020/12/02 05:46:22;;;;;;;54.58;24.17;;;4.30;99.90;;;;;;5109667;28;20111;-68
2020/12/02 05:48:48;;;;;;;48.13;24.13;;;4.30;99.90;;;;;;5093289;28;20031;-67
2020/12/02 05:51:16;;;;;;;56.90;25.15;;;4.30;99.90;;;;;;5093486;28;20035;-67
2020/12/02 05:53:49;;;;;;;52.05;24.05;;;4.20;99.90;;;;;;5111410;28;20111;-67
2020/12/02 05:56:15;;;;;;;54.03;24.60;;;4.30;99.90;;;;;;5110819;28;20054;-67
2020/12/02 05:58:42;;;;;;;45.88;23.52;;;4.30;99.90;;;;;;5092402;28;20113;-67
2020/12/02 06:01:17;;;;;;;50.17;23.20;;;4.30;99.90;;;;;;5111269;28;20368;-67
2020/12/02 06:03:49;;;;;;;48.35;23.77;;;4.20;99.90;;;;;;5109731;28;20024;-67
2020/12/02 06:06:15;;;;;;;49.33;22.80;;;4.20;99.90;;;;;;5109318;28;20024;-67
2020/12/02 06:08:44;;;;;;;50.45;23.90;;;4.30;99.90;;;;;;5111103;28;20039;-67
2020/12/02 06:13:58;;;;;;;46.17;23.10;;;4.30;99.90;;;;;;5112249;27;20404;-67
2020/12/02 06:16:44;;;;;;;53.28;24.50;;;4.30;99.90;;;;;;5112008;28;20024;-67
2020/12/02 06:19:36;;;;;;;47.78;23.65;;;4.30;99.90;;;;;;5111880;28;20020;-66
2020/12/02 06:22:03;;;;;;;48.20;22.90;;;4.30;99.90;;;;;;5111780;28;20058;-67
2020/12/02 06:27:39;;;;;;;45.15;22.58;;;4.30;99.90;;;;;;5091828;27;20406;-66
2020/12/02 06:30:12;;;;;;;52.00;23.27;;;4.30;99.90;;;;;;5090339;28;20370;-66
2020/12/02 06:32:38;;;;;;;48.50;23.48;;;4.30;99.90;;;;;;5091546;28;20364;-65
2020/12/02 06:35:20;;;;;;;43.20;22.80;;;4.30;99.90;;;;;;5089708;28;20021;-66
2020/12/02 06:38:26;;;;;;;43.03;22.48;;;4.30;99.90;;;;;;5089915;28;20033;-66
2020/12/02 06:43:46;;;;;;;50.13;23.35;;;4.30;99.90;;;;;;5112146;27;20408;-66
2020/12/02 06:46:13;;;;;;;45.85;22.55;;;4.30;99.90;;;;;;5111833;28;20457;-66
2020/12/02 06:48:39;;;;;;;49.17;23.75;;;4.30;99.90;;;;;;5111831;28;20061;-66
2020/12/02 06:51:10;;;;;;;50.10;23.50;;;4.30;99.90;;;;;;5111464;28;20427;-66
2020/12/02 06:53:36;;;;;;;42.72;22.85;;;4.40;99.90;;;;;;5111447;28;20020;-66
2020/12/02 06:56:04;;;;;;;47.22;23.42;;;4.40;99.90;;;;;;5111236;28;20035;-66
2020/12/02 06:58:31;;;;;;;48.30;23.05;;;4.40;99.90;;;;;;5111940;28;20083;-65
2020/12/02 07:01:01;;;;;;;50.85;23.77;;;4.40;99.90;;;;;;5111486;28;20369;-65
2020/12/02 07:03:32;;;;;;;48.55;23.45;;;4.30;99.90;;;;;;5109573;28;20024;-65
2020/12/02 07:06:27;;;;;;;48.13;23.92;;;4.30;99.90;;;;;;5110322;28;20036;-65
2020/12/02 07:09:08;;;;;;;47.97;23.80;;;4.30;99.90;;;;;;5109780;28;20024;-65
2020/12/02 07:11:34;;;;;;;50.33;24.15;;;4.40;99.90;;;;;;5109585;28;20020;-65
2020/12/02 07:14:20;;;;;;;48.67;22.98;;;4.40;99.90;;;;;;5110202;28;20575;-65
2020/12/02 07:16:46;;;;;;;45.55;22.50;;;4.40;99.90;;;;;;5109490;28;20078;-65
2020/12/02 07:19:13;;;;;;;45.00;23.05;;;4.40;99.90;;;;;;5093333;28;20070;-65
2020/12/02 07:21:44;;;;;;;45.28;22.02;;;4.30;99.90;;;;;;5109331;28;20383;-65
2020/12/02 07:24:19;;;;;;;44.15;22.27;;;4.30;99.90;;;;;;5109707;28;20043;-65
2020/12/02 07:26:44;;;;;;;44.90;22.55;;;4.30;99.90;;;;;;5108778;28;20015;-65
2020/12/02 07:29:15;;;;;;;46.20;21.83;;;4.40;99.90;;;;;;5092172;28;20023;-65
2020/12/02 07:31:41;;;;;;;50.00;21.88;;;4.50;99.90;;;;;;5110242;28;20027;-65
2020/12/02 07:34:13;;;;;;;48.78;23.52;;;4.40;99.90;;;;;;5110035;28;20034;-65
2020/12/02 07:36:39;;;;;;;45.10;21.58;;;4.30;99.90;;;;;;5110254;28;20020;-65
2020/12/02 07:39:16;;;;;;;44.28;21.65;;;4.40;99.90;;;;;;5110165;28;20388;-62
2020/12/02 07:42:22;;;;;;;42.85;22.02;;;4.40;99.90;;;;;;5109950;28;20035;-64
2020/12/02 07:45:00;;;;;;;46.65;20.85;;;4.40;99.90;;;;;;5089593;28;20024;-63
2020/12/02 07:47:26;;;;;;;46.97;21.67;;;4.30;99.90;;;;;;5086262;28;20028;-64
2020/12/02 07:50:03;;;;;;;39.65;20.75;;;4.30;99.90;;;;;;5087463;28;20074;-64
2020/12/02 07:52:36;;;;;;;41.47;20.20;;;4.40;99.90;;;;;;5089443;28;20066;-68
2020/12/02 07:55:04;;;;;;;43.85;21.70;;;4.40;99.90;;;;;;5088036;28;20538;-69
2020/12/02 07:57:30;;;;;;;43.80;20.63;;;4.30;99.90;;;;;;5095277;28;20031;-69
2020/12/02 08:00:33;;;;;;;44.67;21.38;;;4.40;99.90;;;;;;5095455;28;20492;-69
2020/12/02 08:02:59;;;;;;;45.88;20.55;;;4.30;99.90;;;;;;5095039;28;20135;-69
2020/12/02 08:05:42;;;;;;;37.08;19.45;;;4.30;99.90;;;;;;5095051;28;20122;-69
2020/12/02 08:10:48;;;;;;;41.38;20.15;;;4.30;99.90;;;;;;5070398;28;20350;-69
2020/12/02 08:13:17;;;;;;;38.72;19.73;;;4.30;99.90;;;;;;5050086;28;20513;-70
2020/12/02 08:18:50;;;;;;;40.00;19.67;;;4.30;99.90;;;;;;5042227;28;20046;-69
2020/12/02 08:21:16;;;;;;;36.75;19.15;;;4.30;99.90;;;;;;5040550;28;20032;-68
2020/12/02 08:24:20;;;;;;;36.17;18.70;;;4.30;99.90;;;;;;5047709;28;20028;-68
2020/12/02 08:26:47;;;;;;;38.47;20.25;;;4.30;99.90;;;;;;5048324;28;20079;-69
2020/12/02 08:29:20;;;;;;;39.25;20.10;;;4.30;99.90;;;;;;5046891;28;20056;-69
2020/12/02 08:31:46;;;;;;;40.33;19.80;;;4.30;99.90;;;;;;5047283;28;20021;-68
2020/12/02 08:34:30;;;;;;;35.05;18.98;;;4.30;99.90;;;;;;5047324;28;20075;-68
2020/12/02 08:39:50;;;;;;;34.65;17.60;;;4.40;99.90;;;;;;5111394;27;20909;-69
2020/12/02 08:42:36;;;;;;;37.15;18.98;;;4.30;99.90;;;;;;5110109;28;20026;-68
2020/12/02 08:45:21;;;;;;;34.90;17.90;;;4.30;99.90;;;;;;5110752;28;20027;-68
2020/12/02 08:47:53;;;;;;;37.17;18.23;;;4.30;99.90;;;;;;5110964;28;20429;-69
2020/12/02 08:50:34;;;;;;;38.45;19.33;;;4.30;99.90;;;;;;5110676;28;20046;-69
2020/12/02 08:53:00;;;;;;;34.42;18.20;;;4.30;99.90;;;;;;5110983;28;20019;-69
2020/12/02 08:55:26;;;;;;;40.58;20.15;;;4.30;99.90;;;;;;5109684;28;20020;-70
2020/12/02 08:57:52;;;;;;;35.75;18.27;;;4.30;99.90;;;;;;5109603;28;20074;-69
2020/12/02 09:00:20;;;;;;;35.92;18.88;;;4.30;99.90;;;;;;5109772;28;20381;-69
2020/12/02 09:02:47;;;;;;;35.25;17.80;;;4.30;99.90;;;;;;5110693;28;20031;-70
2020/12/02 09:05:12;;;;;;;35.75;18.27;;;4.40;99.90;;;;;;5111023;28;20098;-69
2020/12/02 09:07:38;;;;;;;31.80;17.27;;;4.40;99.90;;;;;;5110381;28;20062;-70
2020/12/02 09:10:05;;;;;;;36.17;17.80;;;4.40;99.90;;;;;;5109404;28;20035;-70
2020/12/02 09:12:30;;;;;;;32.25;17.17;;;4.30;99.90;;;;;;5110557;28;20031;-69
2020/12/02 09:14:56;;;;;;;36.92;18.40;;;4.30;99.90;;;;;;5110301;28;20487;-70
2020/12/02 09:17:22;;;;;;;31.55;17.85;;;4.40;99.90;;;;;;5110305;28;20472;-69
2020/12/02 09:19:50;;;;;;;34.17;18.42;;;4.40;99.90;;;;;;5110019;28;20027;-71
2020/12/02 09:22:16;;;;;;;34.03;17.75;;;4.40;99.90;;;;;;5092585;28;20027;-70
2020/12/02 09:24:44;;;;;;;31.00;16.58;;;4.50;99.90;;;;;;5109947;28;20024;-70
2020/12/02 09:27:10;;;;;;;36.10;17.40;;;4.40;99.90;;;;;;5109954;28;20032;-70
2020/12/02 09:29:36;;;;;;;35.75;18.27;;;4.40;99.90;;;;;;5109102;28;20028;-70
2020/12/02 09:32:02;;;;;;;32.65;17.60;;;4.40;99.90;;;;;;5110145;28;20431;-66
2020/12/02 09:34:27;;;;;;;31.95;16.95;;;4.50;99.90;;;;;;5108830;28;20034;-70
2020/12/02 09:36:53;;;;;;;26.63;15.25;;;4.50;99.90;;;;;;5110510;28;20523;-69
2020/12/02 09:39:20;;;;;;;30.35;15.95;;;4.50;99.90;;;;;;5108386;28;20048;-70
2020/12/02 09:42:09;;;;;;;31.20;16.42;;;4.50;99.90;;;;;;5109771;28;20072;-70
2020/12/02 09:44:41;;;;;;;31.27;17.25;;;4.50;99.90;;;;;;5110024;28;20016;-69
2020/12/02 09:47:13;;;;;;;29.88;15.98;;;4.50;99.90;;;;;;5110077;28;20024;-69
2020/12/02 09:49:40;;;;;;;30.40;16.83;;;4.50;99.90;;;;;;5103317;28;20019;-69
2020/12/02 09:54:48;;;;;;;29.52;15.18;;;4.50;99.90;;;;;;5111660;27;20347;-64
2020/12/02 09:57:18;;;;;;;34.08;17.15;;;4.50;99.90;;;;;;5110716;28;20081;-66
2020/12/02 09:59:44;;;;;;;33.67;16.20;;;4.50;99.90;;;;;;5110997;28;20495;-68
2020/12/02 10:02:39;;;;;;;31.33;17.05;;;4.50;99.90;;;;;;5111042;28;20420;-69
2020/12/02 10:05:40;;;;;;;28.98;15.52;;;4.50;99.90;;;;;;5110322;28;20024;-70
2020/12/02 10:08:38;;;;;;;34.40;15.90;;;4.50;99.90;;;;;;5110335;28;20027;-67
2020/12/02 10:11:12;;;;;;;33.35;16.65;;;4.50;99.90;;;;;;5095355;28;20020;-66
2020/12/02 10:13:53;;;;;;;27.23;15.00;;;4.50;99.90;;;;;;5110937;28;20469;-69
2020/12/02 10:19:29;;;;;;;29.02;16.20;;;4.50;99.90;;;;;;5110887;27;20893;-72
2020/12/02 10:22:11;;;;;;;30.67;16.80;;;4.40;99.90;;;;;;5110974;28;20024;-70
2020/12/02 10:25:03;;;;;;;25.27;14.18;;;4.50;99.90;;;;;;5111192;28;20022;-72
2020/12/02 10:27:58;;;;;;;34.10;14.90;;;4.50;99.90;;;;;;5110098;28;20059;-72
2020/12/02 10:30:28;;;;;;;23.95;13.15;;;4.50;99.90;;;;;;5109262;28;20534;-71
2020/12/02 10:33:23;;;;;;;26.40;14.68;;;4.40;99.90;;;;;;5109941;28;20070;-68
2020/12/02 10:35:50;;;;;;;28.17;14.25;;;4.40;99.90;;;;;;5110798;28;20476;-72
2020/12/02 10:38:32;;;;;;;28.65;14.20;;;4.40;99.90;;;;;;5111103;28;20028;-71
2020/12/02 10:41:31;;;;;;;26.33;13.55;;;4.40;99.90;;;;;;5093745;28;20063;-71
2020/12/02 10:44:13;;;;;;;27.35;14.48;;;4.40;99.90;;;;;;5109229;28;20073;-70
2020/12/02 10:49:28;;;;;;;26.10;13.52;;;4.40;99.90;;;;;;5110757;27;20905;-70
2020/12/02 10:51:56;;;;;;;25.45;14.35;;;4.50;99.90;;;;;;5111157;28;20027;-70
2020/12/02 10:54:25;;;;;;;27.48;14.02;;;4.50;99.90;;;;;;5108644;28;20380;-72
2020/12/02 10:56:56;;;;;;;21.90;12.55;;;4.50;99.90;;;;;;5110965;28;20054;-71
2020/12/02 10:59:24;;;;;;;24.83;13.75;;;4.50;99.90;;;;;;5110973;28;20377;-70
2020/12/02 11:01:51;;;;;;;29.17;13.43;;;4.50;99.90;;;;;;5109334;28;20433;-70
2020/12/02 11:04:18;;;;;;;25.73;13.57;;;4.50;99.90;;;;;;5109421;28;20111;-70
2020/12/02 11:09:45;;;;;;;26.70;14.18;;;4.60;99.90;;;;;;5131536;27;680805;-69
2020/12/02 11:12:27;;;;;;;27.52;14.20;;;4.60;99.90;;;;;;5131742;27;20102;-70
2020/12/02 11:15:43;;;;;;;28.33;14.43;;;4.70;99.90;;;;;;5131591;27;20115;-71
2020/12/02 11:18:51;;;;;;;30.52;14.90;;;4.80;99.90;;;;;;5131356;27;20065;-71
2020/12/02 11:21:42;;;;;;;24.58;12.63;;;4.80;99.90;;;;;;5131353;27;20464;-70
2020/12/02 11:24:37;;;;;;;25.63;13.48;;;4.80;99.90;;;;;;5131417;27;20102;-71
2020/12/02 11:27:04;;;;;;;26.33;14.23;;;4.80;99.90;;;;;;5130023;28;20114;-71
2020/12/02 11:29:30;;;;;;;23.73;13.15;;;4.80;99.90;;;;;;5129640;28;20019;-72
2020/12/02 11:35:07;;;;;;;25.00;14.30;;;4.70;99.90;;;;;;5111535;27;20355;-69
2020/12/02 11:37:57;;;;;;;27.45;14.85;;;4.80;99.90;;;;;;5095200;28;20038;-69
2020/12/02 11:40:27;;;;;;;26.40;14.27;;;4.90;99.90;;;;;;5109782;28;20024;-72
2020/12/02 11:43:01;;;;;;;27.38;13.85;;;4.90;99.90;;;;;;5109974;28;20118;-70
2020/12/02 11:45:34;;;;;;;26.90;14.13;;;4.90;99.90;;;;;;5109607;28;20051;-68
2020/12/02 11:48:23;;;;;;;24.42;14.18;;;4.90;99.90;;;;;;5109586;28;20065;-68
2020/12/02 11:51:14;;;;;;;27.73;14.55;;;4.90;99.90;;;;;;5109091;28;20059;-67
2020/12/02 11:53:49;;;;;;;28.42;14.77;;;4.90;99.90;;;;;;5091931;28;20366;-67
2020/12/02 11:56:22;;;;;;;26.38;13.88;;;4.90;99.90;;;;;;5110617;28;20404;-63
2020/12/02 11:58:57;;;;;;;26.30;14.18;;;5.00;99.90;;;;;;5109518;28;20020;-61
2020/12/02 12:02:02;;;;;;;26.90;14.15;;;5.10;99.90;;;;;;5109271;28;20066;-63
2020/12/02 12:05:07;;;;;;;24.95;13.88;;;5.10;99.90;;;;;;5097955;28;20020;-63
2020/12/02 12:07:42;;;;;;;28.58;14.85;;;5.00;99.90;;;;;;5109016;28;20492;-62
2020/12/02 12:10:29;;;;;;;28.05;13.95;;;5.10;99.90;;;;;;5108792;28;20036;-62
2020/12/02 12:13:12;;;;;;;28.58;14.32;;;5.20;99.90;;;;;;5110457;28;20073;-63
2020/12/02 12:15:41;;;;;;;24.55;13.93;;;5.10;99.90;;;;;;5110399;28;20020;-63
2020/12/02 12:18:33;;;;;;;23.83;13.38;;;5.10;99.90;;;;;;5110060;28;20063;-63
2020/12/02 12:21:01;;;;;;;26.45;14.82;;;5.20;99.90;;;;;;5110009;28;20081;-62
2020/12/02 12:23:44;;;;;;;21.42;12.95;;;5.20;99.90;;;;;;5110390;28;20028;-63
2020/12/02 12:26:11;;;;;;;23.67;14.32;;;5.30;99.90;;;;;;5110228;28;20118;-62
2020/12/02 12:28:37;;;;;;;34.58;14.85;;;5.30;99.90;;;;;;5109794;28;20385;-62
2020/12/02 12:31:10;;;;;;;26.73;13.80;;;5.30;99.90;;;;;;5108928;28;20144;-62
2020/12/02 12:33:44;;;;;;;24.02;13.73;;;5.30;99.90;;;;;;5109362;28;20044;-61
2020/12/02 12:36:20;;;;;;;20.48;13.43;;;5.20;99.90;;;;;;5109884;28;20027;-62
2020/12/02 12:38:59;;;;;;;21.60;13.35;;;5.20;99.90;;;;;;5110091;28;20016;-62
2020/12/02 12:41:37;;;;;;;23.15;13.60;;;5.30;99.90;;;;;;5108151;28;20024;-67
2020/12/02 12:44:19;;;;;;;23.08;14.68;;;5.20;99.90;;;;;;5107075;28;20024;-65
2020/12/02 12:47:09;;;;;;;24.75;13.48;;;5.10;99.90;;;;;;5094729;28;20049;-68
2020/12/02 12:49:34;;;;;;;26.02;14.52;;;5.10;99.90;;;;;;5095150;28;20081;-65
2020/12/02 12:52:03;;;;;;;27.85;14.32;;;5.20;99.90;;;;;;5095448;28;20028;-66
2020/12/02 12:54:29;;;;;;;22.10;13.35;;;5.20;99.90;;;;;;5096002;28;20454;-66
2020/12/02 12:56:56;;;;;;;24.75;13.80;;;5.10;99.90;;;;;;5086641;28;20020;-66
2020/12/02 12:59:24;;;;;;;27.77;15.05;;;5.20;99.90;;;;;;5094714;28;20381;-64
2020/12/02 13:01:52;;;;;;;26.25;14.32;;;5.10;99.90;;;;;;5090889;28;20020;-62
2020/12/02 13:04:21;;;;;;;24.65;14.82;;;5.20;99.90;;;;;;5084864;28;20115;-63
2020/12/02 13:07:22;;;;;;;25.35;15.27;;;5.20;99.90;;;;;;5080895;28;20032;-64
2020/12/02 13:10:07;;;;;;;25.25;14.02;;;5.20;99.90;;;;;;5085630;28;20465;-66
2020/12/02 13:12:42;;;;;;;24.90;14.32;;;5.20;99.90;;;;;;5095346;28;20096;-69
2020/12/02 13:15:36;;;;;;;24.27;14.40;;;5.20;99.90;;;;;;5096014;28;20035;-69
2020/12/02 13:18:28;;;;;;;24.35;14.63;;;5.20;99.90;;;;;;5095757;28;20027;-70
2020/12/02 13:21:11;;;;;;;27.15;14.93;;;5.10;99.90;;;;;;5095812;28;20031;-69
2020/12/02 13:23:41;;;;;;;23.73;14.73;;;5.20;99.90;;;;;;5095419;28;20149;-69
2020/12/02 13:26:20;;;;;;;23.70;13.60;;;5.20;99.90;;;;;;5095574;28;20465;-71
2020/12/02 13:29:25;;;;;;;23.85;14.85;;;5.20;99.90;;;;;;5095332;28;20028;-72
2020/12/02 13:31:59;;;;;;;24.52;13.80;;;5.30;99.90;;;;;;5095539;28;20035;-70
2020/12/02 13:34:25;;;;;;;24.20;13.90;;;5.30;99.90;;;;;;5095283;28;20040;-70
2020/12/02 13:36:52;;;;;;;24.42;13.88;;;5.30;99.90;;;;;;5093406;28;20042;-69
2020/12/02 13:39:18;;;;;;;25.98;15.55;;;5.40;99.90;;;;;;5095184;28;20032;-70
2020/12/02 13:44:37;;;;;;;25.77;15.40;;;5.30;99.90;;;;;;5131692;27;680500;-68
2020/12/02 13:47:08;;;;;;;25.15;14.13;;;5.30;99.90;;;;;;5130559;28;20041;-69
2020/12/02 13:49:35;;;;;;;26.15;15.43;;;5.30;99.90;;;;;;5112422;28;20027;-69
2020/12/02 13:52:22;;;;;;;27.95;15.60;;;5.20;99.90;;;;;;5131118;27;20139;-69